Date,TemperatureHighF,TemperatureAvgF,TemperatureLowF,DewpointHighF,DewpointAvgF,DewpointLowF,HumidityHigh,HumidityAvg,HumidityLow,PressureMaxIn,PressureMinIn,WindSpeedMaxMPH,WindSpeedAvgMPH,GustSpeedMaxMPH,PrecipitationSumIn
2013-2-1,68.0,57.1,45.0,33.0,30.4,28.0,57,38,23,0.00,40.00,10,5,20,0.00
2013-2-2,69.0,60.8,55.0,35.0,29.5,22.0,42,31,17,0.00,40.00,11,6,19,0.00
2013-2-3,68.0,57.3,47.0,45.0,41.6,34.0,85,58,36,0.00,40.00,5,3,11,0.00
2013-2-4,71.0,56.1,44.0,41.0,37.8,34.0,74,53,30,0.00,40.00,6,3,12,0.00
2013-2-5,66.0,53.4,43.0,47.0,41.2,34.0,98,67,37,0.00,40.00,9,4,16,0.00
2013-2-6,60.0,48.7,42.0,47.0,43.5,38.0,100,84,57,0.00,40.00,7,4,14,0.00
2013-2-7,63.0,48.5,39.0,46.0,38.8,33.0,91,73,36,0.00,40.00,8,4,15,0.00
2013-2-8,44.0,37.5,33.0,41.0,35.6,32.0,99,93,83,0.00,40.00,11,5,18,0.67
2013-2-9,46.0,38.5,33.0,36.0,33.1,30.0,99,83,54,0.00,40.00,9,6,14,0.09
2013-2-10,46.0,40.7,34.0,38.0,34.6,31.0,95,80,59,0.00,40.00,7,4,11,0.00
2013-2-11,54.0,42.6,33.0,38.0,24.4,11.0,97,57,19,0.00,40.00,5,3,15,0.00
2013-2-12,59.0,43.0,32.0,25.0,18.9,13.0,58,40,20,0.00,40.00,5,2,9,0.00
2013-2-13,65.0,48.3,34.0,31.0,23.9,19.0,59,42,20,0.00,40.00,6,2,12,0.00
2013-2-14,68.0,55.2,41.0,30.0,24.9,19.0,64,35,16,0.00,40.00,14,6,26,0.00
2013-2-15,68.0,60.3,54.0,24.0,16.3,9.0,31,19,10,0.00,40.00,20,13,41,0.00
2013-2-16,70.0,59.4,44.0,22.0,12.7,9.0,40,17,9,0.00,40.00,17,10,29,0.00
2013-2-17,66.0,53.2,43.0,39.0,24.7,17.0,84,37,18,0.00,40.00,9,5,17,0.00
2013-2-18,62.0,47.5,39.0,43.0,34.9,28.0,100,65,30,0.00,40.00,8,4,12,0.00
2013-2-19,43.0,41.2,38.0,43.0,39.3,36.0,100,93,79,0.00,40.00,10,7,21,0.31
2013-2-20,49.0,39.7,33.0,35.0,32.2,29.0,100,76,51,0.00,40.00,12,8,29,0.54
2013-2-21,52.0,41.6,36.0,35.0,31.3,27.0,85,68,39,0.00,40.00,10,3,14,0.01
2013-2-22,60.0,45.4,33.0,35.0,27.6,23.0,90,55,25,0.00,40.00,6,3,11,0.00
2013-2-23,60.0,46.7,36.0,32.0,30.0,27.0,81,55,33,0.00,40.00,11,6,19,0.00
2013-2-24,57.0,46.8,38.0,32.0,6.6,-2.0,80,24,9,0.00,40.00,14,8,25,0.00
2013-2-25,63.0,47.9,34.0,25.0,14.1,7.0,51,28,13,0.00,40.00,9,4,15,0.00
2013-2-26,62.0,49.3,33.0,25.0,14.4,4.0,66,31,11,0.00,40.00,17,8,29,0.00
2013-2-27,63.0,52.5,44.0,11.0,7.5,4.0,23,16,10,0.00,40.00,15,9,28,0.00
2013-2-28,68.0,58.4,50.0,14.0,7.2,2.0,22,13,9,0.00,40.00,15,10,30,0.00